createdAt,value
2019-02-21T00:01:50.655Z,102048.48
2019-02-21T00:04:18.877Z,102047.90
2019-02-21T00:06:47.084Z,102049.03
2019-02-21T00:09:15.292Z,102048.55
2019-02-21T00:11:43.490Z,102050.27
2019-02-21T00:14:11.701Z,102054.69
2019-02-21T00:16:39.921Z,102057.11
2019-02-21T00:19:08.132Z,102057.91
2019-02-21T00:21:36.330Z,102059.02
2019-02-21T00:24:04.555Z,102047.81
2019-02-21T00:26:32.799Z,102053.38
2019-02-21T00:29:00.991Z,102053.92
2019-02-21T00:31:29.181Z,102046.81
2019-02-21T00:33:57.418Z,102050.40
2019-02-21T00:36:25.616Z,102049.36
2019-02-21T00:38:53.833Z,102043.22
2019-02-21T00:41:22.031Z,102041.56
2019-02-21T00:43:50.248Z,102047.33
2019-02-21T00:46:18.450Z,102043.40
2019-02-21T00:48:46.660Z,102042.84
2019-02-21T00:51:14.857Z,102039.32
2019-02-21T00:53:43.070Z,102039.08
2019-02-21T00:56:11.266Z,102034.72
2019-02-21T00:58:39.484Z,102044.41
2019-02-21T01:01:07.682Z,102050.77
2019-02-21T01:03:35.888Z,102032.58
2019-02-21T01:06:04.088Z,102032.30
2019-02-21T01:08:32.296Z,102039.17
2019-02-21T01:11:00.496Z,102033.09
2019-02-21T01:13:29.095Z,102040.80
2019-02-21T01:15:57.310Z,102039.38
2019-02-21T01:18:25.527Z,102041.90
2019-02-21T01:20:53.754Z,102037.76
2019-02-21T01:23:21.952Z,102038.00
2019-02-21T01:25:50.163Z,102030.58
2019-02-21T01:28:18.366Z,102033.34
2019-02-21T01:30:56.407Z,102039.14
2019-02-21T01:33:16.516Z,102039.94
2019-02-21T01:35:44.740Z,102043.22
2019-02-21T01:38:12.948Z,102042.42
2019-02-21T01:40:41.155Z,102036.66
2019-02-21T01:43:09.354Z,102035.55
2019-02-21T01:45:37.562Z,102038.86
2019-02-21T01:48:05.762Z,102037.23
2019-02-21T01:50:33.972Z,102027.60
2019-02-21T01:53:02.165Z,102029.02
2019-02-21T01:55:30.373Z,102028.25
2019-02-21T01:57:58.572Z,102031.88
2019-02-21T02:00:26.788Z,102023.28
2019-02-21T02:02:54.990Z,102033.77
2019-02-21T02:05:23.194Z,102034.02
2019-02-21T02:07:51.416Z,102034.88
2019-02-21T02:10:19.623Z,102035.19
2019-02-21T02:12:47.824Z,102030.21
2019-02-21T02:15:16.025Z,102030.77
2019-02-21T02:17:44.230Z,102035.16
2019-02-21T02:20:12.444Z,102027.66
2019-02-21T02:22:40.643Z,102030.18
2019-02-21T02:25:08.851Z,102032.12
2019-02-21T02:27:37.051Z,102035.16
2019-02-21T02:30:06.900Z,102036.81
2019-02-21T02:32:35.086Z,102036.02
2019-02-21T02:35:03.470Z,102035.95
2019-02-21T02:37:31.676Z,102035.43
2019-02-21T02:39:59.895Z,102033.77
2019-02-21T02:42:28.111Z,102032.08
2019-02-21T02:44:56.329Z,102026.28
2019-02-21T02:47:24.532Z,102040.37
2019-02-21T02:49:52.755Z,102032.08
2019-02-21T02:52:20.963Z,102042.06
2019-02-21T02:54:49.180Z,102043.13
2019-02-21T02:57:17.369Z,102029.53
2019-02-21T02:59:45.566Z,102032.81
2019-02-21T03:02:13.776Z,102035.03
2019-02-21T03:04:42.043Z,102033.37
2019-02-21T03:07:10.250Z,102040.86
2019-02-21T03:09:38.451Z,102036.96
2019-02-21T03:12:06.656Z,102032.58
2019-02-21T03:14:34.844Z,102034.51
2019-02-21T03:17:03.056Z,102032.39
2019-02-21T03:19:31.258Z,102026.34
2019-02-21T03:21:59.458Z,102026.63
2019-02-21T03:24:27.713Z,102036.25
2019-02-21T03:26:55.862Z,102027.66
2019-02-21T03:29:24.089Z,102035.43
2019-02-21T03:31:55.023Z,102033.19
2019-02-21T03:34:22.282Z,102034.54
2019-02-21T03:36:50.455Z,102033.47
2019-02-21T03:39:18.651Z,102035.40
2019-02-21T03:41:46.869Z,102031.28
2019-02-21T03:44:15.066Z,102029.97
2019-02-21T03:46:43.275Z,102033.53
2019-02-21T03:49:11.472Z,102035.16
2019-02-21T03:51:39.682Z,102034.33
2019-02-21T03:54:07.876Z,102031.59
2019-02-21T03:56:36.106Z,102036.87
2019-02-21T03:59:04.322Z,102037.73
2019-02-21T04:01:32.537Z,102035.52
2019-02-21T04:04:00.737Z,102051.02
2019-02-21T04:06:28.939Z,102044.97
2019-02-21T04:08:57.132Z,102042.14
2019-02-21T04:11:25.359Z,102045.19
2019-02-21T04:13:53.558Z,102045.70
2019-02-21T04:16:21.768Z,102043.25
2019-02-21T04:18:49.962Z,102040.77
2019-02-21T04:21:18.215Z,102040.77
2019-02-21T04:23:46.414Z,102038.31
2019-02-21T04:26:14.628Z,102044.97
2019-02-21T04:28:45.591Z,102031.16
2019-02-21T04:31:12.761Z,102026.19
2019-02-21T04:33:40.979Z,102022.87
2019-02-21T04:36:09.195Z,102014.84
2019-02-21T04:38:37.394Z,102018.46
2019-02-21T04:41:05.592Z,102016.31
2019-02-21T04:43:33.803Z,102014.94
2019-02-21T04:46:01.995Z,102012.17
2019-02-21T04:48:30.202Z,102012.97
2019-02-21T04:50:58.408Z,102016.25
2019-02-21T04:53:26.651Z,102018.16
2019-02-21T04:55:54.843Z,102014.59
2019-02-21T04:58:23.071Z,102019.87
2019-02-21T05:00:51.285Z,102019.69
2019-02-21T05:03:19.509Z,102024.13
2019-02-21T05:05:47.717Z,102022.78
2019-02-21T05:08:15.925Z,102023.09
2019-02-21T05:10:44.123Z,102022.56
2019-02-21T05:13:12.347Z,102023.09
2019-02-21T05:15:40.566Z,102022.29
2019-02-21T05:18:08.749Z,102019.28
2019-02-21T05:20:36.941Z,102017.72
2019-02-21T05:23:05.146Z,102022.70
2019-02-21T05:25:33.341Z,102016.16
2019-02-21T05:28:03.181Z,102023.37
2019-02-21T05:30:31.387Z,102021.69
2019-02-21T05:33:03.881Z,102008.41
2019-02-21T05:35:36.168Z,102011.69
2019-02-21T05:38:12.259Z,102011.14
2019-02-21T05:40:42.206Z,102012.30
2019-02-21T05:43:14.988Z,102020.63
2019-02-21T05:45:46.821Z,102017.11
2019-02-21T05:48:28.445Z,102016.58
2019-02-21T05:50:58.318Z,102018.20
2019-02-21T05:53:34.387Z,102018.51
2019-02-21T05:56:16.285Z,102017.96
2019-02-21T05:58:49.051Z,102020.74
2019-02-21T06:01:31.084Z,102015.78
2019-02-21T06:04:03.368Z,102025.43
2019-02-21T06:06:35.928Z,102024.88
2019-02-21T06:09:09.216Z,102032.61
2019-02-21T06:11:55.544Z,102022.41
2019-02-21T06:14:25.404Z,102025.43
2019-02-21T06:16:58.160Z,102021.30
2019-02-21T06:19:33.865Z,102020.20
2019-02-21T06:22:10.563Z,102021.82
2019-02-21T06:24:46.881Z,102020.44
2019-02-21T06:27:22.536Z,102025.63
2019-02-21T06:29:54.802Z,102020.63
2019-02-21T06:32:23.033Z,102023.39
2019-02-21T06:34:52.391Z,102020.91
2019-02-21T06:37:20.712Z,102035.04
2019-02-21T06:39:48.937Z,102032.06
2019-02-21T06:42:17.128Z,102029.87
2019-02-21T06:44:45.334Z,102030.95
2019-02-21T06:47:13.521Z,102039.23
2019-02-21T06:49:41.725Z,102041.96
2019-02-21T06:52:09.933Z,102040.86
2019-02-21T06:54:38.150Z,102043.34
2019-02-21T06:57:06.352Z,102050.79
2019-02-21T06:59:42.204Z,102051.06
2019-02-21T07:02:04.514Z,102054.35
2019-02-21T07:04:33.454Z,102049.58
2019-02-21T07:07:01.703Z,102047.95
2019-02-21T07:09:29.915Z,102059.56
2019-02-21T07:11:58.103Z,102063.18
2019-02-21T07:14:26.302Z,102063.46
2019-02-21T07:16:54.509Z,102059.02
2019-02-21T07:19:22.718Z,102054.55
2019-02-21T07:21:50.924Z,102052.29
2019-02-21T07:24:19.135Z,102052.02
2019-02-21T07:26:47.366Z,102063.35
2019-02-21T07:29:15.550Z,102070.50
2019-02-21T07:31:43.751Z,102078.18
2019-02-21T07:34:11.951Z,102084.22
2019-02-21T07:36:40.162Z,102086.45
2019-02-21T07:39:16.956Z,102086.69
2019-02-21T07:41:38.311Z,102077.77
2019-02-21T07:44:12.160Z,102072.16
2019-02-21T07:46:36.451Z,102075.70
2019-02-21T07:49:04.672Z,102079.56
2019-02-21T07:51:32.894Z,102084.81
2019-02-21T07:54:01.117Z,102085.61
2019-02-21T07:56:29.332Z,102084.91
2019-02-21T07:58:57.721Z,102086.00
2019-02-21T08:01:26.027Z,102092.51
2019-02-21T08:03:54.230Z,102100.45
2019-02-21T08:06:22.447Z,102100.30
2019-02-21T08:08:50.661Z,102103.25
2019-02-21T08:11:18.866Z,102110.38
2019-02-21T08:13:47.072Z,102113.09
2019-02-21T08:16:15.281Z,102117.81
2019-02-21T08:18:43.476Z,102121.17
2019-02-21T08:21:11.682Z,102116.23
2019-02-21T08:23:50.147Z,102129.91
2019-02-21T08:26:09.839Z,102134.02
2019-02-21T08:28:38.065Z,102135.40
2019-02-21T08:31:06.280Z,102127.42
2019-02-21T08:33:36.128Z,102127.42
2019-02-21T08:36:04.340Z,102127.98
2019-02-21T08:38:32.543Z,102133.12
2019-02-21T08:41:00.749Z,102131.05
2019-02-21T08:50:22.413Z,102138.87
2019-02-21T08:52:50.793Z,102127.84
2019-02-21T08:55:18.982Z,102130.20
2019-02-21T08:57:47.198Z,102142.42
2019-02-21T09:00:16.340Z,102133.64
2019-02-21T09:02:44.556Z,102141.63
2019-02-21T09:05:13.391Z,102143.28
2019-02-21T09:07:41.609Z,102127.28
2019-02-21T09:10:11.474Z,102147.17
2019-02-21T09:12:39.720Z,102150.80
2019-02-21T09:15:11.228Z,102149.70
2019-02-21T09:17:39.468Z,102144.38
2019-02-21T09:22:43.345Z,102117.59
2019-02-21T09:28:12.424Z,102129.09
2019-02-21T09:30:40.595Z,102119.02
2019-02-21T09:33:17.080Z,102116.77
2019-02-21T09:35:38.730Z,102112.41
2019-02-21T09:38:06.966Z,102106.36
2019-02-21T09:40:35.211Z,102114.93
2019-02-21T09:43:22.779Z,102113.09
2019-02-21T09:45:50.978Z,102106.36
2019-02-21T09:48:19.192Z,102099.62
2019-02-21T09:50:47.391Z,102101.94
2019-02-21T09:53:15.632Z,102114.69
2019-02-21T09:55:43.814Z,102114.55
2019-02-21T09:58:12.028Z,102123.02
2019-02-21T10:00:40.231Z,102124.01
2019-02-21T10:03:08.463Z,102125.08
2019-02-21T10:05:56.022Z,102135.39
2019-02-21T10:08:24.229Z,102122.66
2019-02-21T10:10:52.430Z,102122.83
2019-02-21T10:13:20.664Z,102114.53
2019-02-21T10:15:48.885Z,102114.69
2019-02-21T10:18:17.088Z,102110.27
2019-02-21T10:20:45.293Z,102104.45
2019-02-21T10:23:13.488Z,102112.20
2019-02-21T10:25:41.700Z,102122.95
2019-02-21T10:28:09.898Z,102110.81
2019-02-21T10:30:38.124Z,102122.44
2019-02-21T10:33:06.320Z,102119.71
2019-02-21T10:35:34.622Z,102116.78
2019-02-21T10:38:02.813Z,102124.25
2019-02-21T10:40:33.336Z,102120.62
2019-02-21T10:43:00.956Z,102141.05
2019-02-21T10:45:29.191Z,102132.27
2019-02-21T10:47:57.384Z,102129.75
2019-02-21T10:50:25.605Z,102130.23
2019-02-21T10:52:53.801Z,102138.16
2019-02-21T10:55:22.683Z,102140.38
2019-02-21T10:57:50.881Z,102132.88
2019-02-21T11:00:28.655Z,102136.23
2019-02-21T11:02:56.842Z,102129.05
2019-02-21T11:05:25.079Z,102132.31
2019-02-21T11:07:53.278Z,102143.20
2019-02-21T11:10:28.871Z,102147.36
2019-02-21T11:12:57.061Z,102146.52
2019-02-21T11:15:25.765Z,102138.23
2019-02-21T11:17:53.982Z,102140.41
2019-02-21T11:20:22.714Z,102136.53
2019-02-21T11:22:51.374Z,102144.76
2019-02-21T11:25:19.601Z,102139.35
2019-02-21T11:27:47.803Z,102132.40
2019-02-21T11:30:19.965Z,102134.26
2019-02-21T11:32:48.172Z,102131.41
2019-02-21T11:35:16.378Z,102139.67
2019-02-21T11:37:47.126Z,102140.74
2019-02-21T11:40:15.862Z,102138.73
2019-02-21T11:42:44.506Z,102139.36
2019-02-21T11:45:15.414Z,102137.81
2019-02-21T11:47:43.612Z,102131.25
2019-02-21T11:50:13.774Z,102131.56
2019-02-21T11:52:41.968Z,102130.14
2019-02-21T11:55:18.192Z,102129.03
2019-02-21T11:57:46.415Z,102126.47
2019-02-21T12:00:17.424Z,102124.22
2019-02-21T12:02:45.623Z,102139.95
2019-02-21T12:05:17.469Z,102143.86
2019-02-21T12:07:43.778Z,102143.39
2019-02-21T12:10:12.523Z,102137.34
2019-02-21T12:12:40.728Z,102126.34
2019-02-21T12:15:11.428Z,102128.87
2019-02-21T12:17:42.312Z,102133.03
2019-02-21T12:20:14.949Z,102140.78
2019-02-21T12:22:43.161Z,102143.50
2019-02-21T12:25:13.695Z,102141.05
2019-02-21T12:27:41.909Z,102141.60
2019-02-21T12:30:12.542Z,102132.13
2019-02-21T12:32:40.768Z,102136.47
2019-02-21T12:35:08.967Z,102140.55
2019-02-21T12:37:37.185Z,102139.09
2019-02-21T12:40:11.404Z,102153.44
2019-02-21T12:42:39.610Z,102145.77
2019-02-21T12:45:10.952Z,102151.30
2019-02-21T12:47:49.630Z,102151.77
2019-02-21T12:50:10.748Z,102145.41
2019-02-21T12:52:38.962Z,102146.59
2019-02-21T12:55:09.106Z,102149.28
2019-02-21T12:57:37.313Z,102150.67
2019-02-21T13:00:08.835Z,102145.09
2019-02-21T13:02:37.049Z,102142.80
2019-02-21T13:05:06.107Z,102142.17
2019-02-21T13:07:34.332Z,102139.05
2019-02-21T13:10:02.530Z,102136.52
2019-02-21T13:12:30.737Z,102137.94
2019-02-21T13:14:58.934Z,102152.89
2019-02-21T13:17:27.147Z,102148.50
2019-02-21T13:19:55.339Z,102138.61
2019-02-21T13:22:23.553Z,102143.31
2019-02-21T13:24:51.770Z,102139.20
2019-02-21T13:27:19.992Z,102138.09
2019-02-21T13:29:48.223Z,102136.23
2019-02-21T13:32:16.447Z,102141.81
2019-02-21T13:34:44.661Z,102143.75
2019-02-21T13:37:12.865Z,102146.00
2019-02-21T13:39:41.067Z,102143.23
2019-02-21T13:42:09.266Z,102156.05
2019-02-21T13:44:37.484Z,102151.13
2019-02-21T13:47:05.689Z,102151.30
2019-02-21T13:49:33.898Z,102146.28
2019-02-21T13:52:02.114Z,102144.89
2019-02-21T13:54:30.321Z,102155.96
2019-02-21T13:56:58.541Z,102158.42
2019-02-21T13:59:26.750Z,102160.36
2019-02-21T14:01:54.953Z,102160.00
2019-02-21T14:04:23.187Z,102156.02
2019-02-21T14:06:51.377Z,102159.91
2019-02-21T14:09:19.594Z,102155.75
2019-02-21T14:11:47.821Z,102158.63
2019-02-21T14:14:16.033Z,102157.23
2019-02-21T14:16:46.871Z,102158.26
2019-02-21T14:19:14.161Z,102162.73
2019-02-21T14:21:43.763Z,102165.71
2019-02-21T14:24:12.078Z,102166.67
2019-02-21T14:26:40.287Z,102162.25
2019-02-21T14:29:08.490Z,102163.02
2019-02-21T14:31:36.702Z,102167.17
2019-02-21T14:34:04.907Z,102161.66
2019-02-21T14:36:33.113Z,102163.60
2019-02-21T14:39:01.318Z,102168.35
2019-02-21T14:41:29.511Z,102167.17
2019-02-21T14:44:00.325Z,102168.86
2019-02-21T14:46:27.713Z,102168.71
2019-02-21T14:48:55.912Z,102167.73
2019-02-21T14:51:24.136Z,102163.22
2019-02-21T14:53:52.383Z,102163.06
2019-02-21T14:56:20.608Z,102162.50
2019-02-21T14:58:48.806Z,102162.44
2019-02-21T15:01:17.011Z,102167.98
2019-02-21T15:03:45.210Z,102167.91
2019-02-21T15:06:13.428Z,102178.06
2019-02-21T15:08:41.625Z,102182.41
2019-02-21T15:11:09.832Z,102176.34
2019-02-21T15:13:38.028Z,102175.61
2019-02-21T15:16:06.239Z,102179.94
2019-02-21T15:18:34.466Z,102183.22
2019-02-21T15:21:02.676Z,102186.26
2019-02-21T15:23:30.893Z,102194.68
2019-02-21T15:25:59.116Z,102189.02
2019-02-21T15:28:27.318Z,102186.89
2019-02-21T15:30:55.529Z,102190.91
2019-02-21T15:33:23.741Z,102186.31
2019-02-21T15:35:51.958Z,102186.64
2019-02-21T15:38:20.426Z,102187.29
2019-02-21T15:40:48.675Z,102180.61
2019-02-21T15:43:16.877Z,102188.66
2019-02-21T15:45:45.071Z,102186.70
2019-02-21T15:48:13.281Z,102188.22
2019-02-21T15:50:41.481Z,102191.42
2019-02-21T15:53:09.694Z,102195.72
2019-02-21T15:55:37.898Z,102203.31
2019-02-21T15:58:06.113Z,102213.20
2019-02-21T16:00:34.312Z,102205.08
2019-02-21T16:03:02.530Z,102212.22
2019-02-21T16:05:30.738Z,102207.06
2019-02-21T16:07:58.943Z,102209.45
2019-02-21T16:10:28.082Z,102211.84
2019-02-21T16:12:56.912Z,102214.67
2019-02-21T16:15:25.476Z,102224.45
2019-02-21T16:17:53.696Z,102235.02
2019-02-21T16:20:21.891Z,102238.41
2019-02-21T16:22:50.130Z,102240.92
2019-02-21T16:25:23.517Z,102244.83
2019-02-21T16:27:51.776Z,102240.49
2019-02-21T16:30:21.985Z,102244.14
2019-02-21T16:32:49.877Z,102247.95
2019-02-21T16:35:18.071Z,102246.87
2019-02-21T16:37:46.294Z,102246.08
2019-02-21T16:40:16.152Z,102248.59
2019-02-21T16:42:44.368Z,102254.09
2019-02-21T16:45:14.603Z,102254.89
2019-02-21T16:47:42.828Z,102247.43
2019-02-21T16:50:13.102Z,102248.50
2019-02-21T16:52:41.306Z,102254.34
2019-02-21T16:55:23.065Z,102256.28
2019-02-21T16:57:51.270Z,102263.80
2019-02-21T17:00:23.241Z,102258.83
2019-02-21T17:02:51.507Z,102264.44
2019-02-21T17:05:19.660Z,102271.95
2019-02-21T17:07:47.875Z,102267.62
2019-02-21T17:10:16.604Z,102272.59
2019-02-21T17:12:44.819Z,102274.28
2019-02-21T17:15:15.314Z,102286.19
2019-02-21T17:17:43.533Z,102274.59
2019-02-21T17:20:25.248Z,102280.11
2019-02-21T17:22:53.461Z,102286.49
2019-02-21T17:25:21.658Z,102292.27
2019-02-21T17:27:50.540Z,102293.98
2019-02-21T17:30:19.270Z,102293.20
2019-02-21T17:32:47.491Z,102298.48
2019-02-21T17:35:15.689Z,102305.16
2019-02-21T17:37:43.896Z,102304.91
2019-02-21T17:40:25.830Z,102296.11
2019-02-21T17:42:54.020Z,102303.88
2019-02-21T17:45:22.312Z,102308.59
2019-02-21T17:47:50.499Z,102308.04
2019-02-21T17:50:19.460Z,102306.94
2019-02-21T17:52:47.660Z,102307.47
2019-02-21T17:55:16.402Z,102306.11
2019-02-21T17:57:44.611Z,102307.81
2019-02-21T18:00:17.243Z,102300.09
2019-02-21T18:02:45.133Z,102309.81
2019-02-21T18:05:13.379Z,102313.15
2019-02-21T18:07:41.523Z,102319.80
2019-02-21T18:10:14.566Z,102317.61
2019-02-21T18:12:42.772Z,102323.16
2019-02-21T18:15:13.239Z,102327.88
2019-02-21T18:17:41.452Z,102328.45
2019-02-21T18:20:11.712Z,102334.82
2019-02-21T18:22:39.901Z,102334.84
2019-02-21T18:25:19.996Z,102335.67
2019-02-21T18:27:48.202Z,102337.03
2019-02-21T18:30:17.296Z,102340.09
2019-02-21T18:32:45.503Z,102341.74
2019-02-21T18:35:13.717Z,102351.45
2019-02-21T18:37:47.584Z,102349.80
2019-02-21T18:40:23.056Z,102358.09
2019-02-21T18:42:51.275Z,102354.81
2019-02-21T18:45:19.484Z,102367.55
2019-02-21T18:47:47.680Z,102370.91
2019-02-21T18:50:15.899Z,102374.52
2019-02-21T18:52:44.136Z,102372.84
2019-02-21T18:55:12.355Z,102362.92
2019-02-21T18:57:40.555Z,102360.70
2019-02-21T19:00:20.030Z,102359.02
2019-02-21T19:02:48.202Z,102357.36
2019-02-21T19:05:16.409Z,102361.01
2019-02-21T19:07:44.625Z,102367.08
2019-02-21T19:10:15.530Z,102366.23
2019-02-21T19:12:43.731Z,102376.98
2019-02-21T19:15:12.115Z,102377.59
2019-02-21T19:17:40.314Z,102366.01
2019-02-21T19:20:11.150Z,102370.15
2019-02-21T19:22:39.395Z,102367.92
2019-02-21T19:25:09.646Z,102377.27
2019-02-21T19:27:37.873Z,102381.40
2019-02-21T19:30:12.205Z,102383.58
2019-02-21T19:32:40.409Z,102392.98
2019-02-21T19:35:09.094Z,102405.41
2019-02-21T19:37:37.308Z,102402.66
2019-02-21T19:40:10.032Z,102411.77
2019-02-21T19:42:38.244Z,102419.52
2019-02-21T19:45:08.205Z,102423.96
2019-02-21T19:47:36.500Z,102426.45
2019-02-21T19:50:09.340Z,102435.55
2019-02-21T19:52:37.548Z,102432.48
2019-02-21T19:55:10.140Z,102436.63
2019-02-21T19:57:38.377Z,102438.86
2019-02-21T20:00:20.218Z,102440.26
2019-02-21T20:02:48.420Z,102442.75
2019-02-21T20:05:16.623Z,102443.87
2019-02-21T20:07:45.001Z,102445.50
2019-02-21T20:10:13.211Z,102449.94
2019-02-21T20:12:41.434Z,102444.43
2019-02-21T20:15:11.134Z,102448.86
2019-02-21T20:17:39.372Z,102449.11
2019-02-21T20:20:19.566Z,102450.23
2019-02-21T20:22:47.771Z,102456.59
2019-02-21T20:25:15.966Z,102456.89
2019-02-21T20:27:44.158Z,102462.97
2019-02-21T20:30:15.266Z,102462.72
2019-02-21T20:32:43.457Z,102476.82
2019-02-21T20:35:11.667Z,102484.55
2019-02-21T20:37:40.003Z,102489.82
2019-02-21T20:40:09.381Z,102491.16
2019-02-21T20:42:37.586Z,102489.77
2019-02-21T20:45:10.581Z,102503.32
2019-02-21T20:47:38.918Z,102497.27
2019-02-21T20:50:08.867Z,102502.53
2019-02-21T20:52:37.063Z,102504.72
2019-02-21T20:55:06.914Z,102504.45
2019-02-21T20:57:35.129Z,102514.41
2019-02-21T21:00:03.354Z,102507.52
2019-02-21T21:02:31.545Z,102511.36
2019-02-21T21:04:59.749Z,102509.44
2019-02-21T21:07:27.957Z,102510.27
2019-02-21T21:09:56.148Z,102519.09
2019-02-21T21:12:24.341Z,102517.41
2019-02-21T21:14:52.550Z,102510.77
2019-02-21T21:17:20.773Z,102515.20
2019-02-21T21:19:48.957Z,102520.18
2019-02-21T21:22:17.143Z,102521.27
2019-02-21T21:24:45.352Z,102524.56
2019-02-21T21:27:13.549Z,102533.67
2019-02-21T21:29:41.760Z,102529.54
2019-02-21T21:32:09.955Z,102532.30
2019-02-21T21:34:38.160Z,102536.98
2019-02-21T21:37:06.372Z,102535.34
2019-02-21T21:39:34.604Z,102536.44
2019-02-21T21:42:02.810Z,102541.11
2019-02-21T21:44:31.023Z,102546.34
2019-02-21T21:46:59.216Z,102552.98
2019-02-21T21:49:27.452Z,102554.07
2019-02-21T21:51:55.649Z,102558.17
2019-02-21T21:54:23.886Z,102556.54
2019-02-21T21:56:52.108Z,102557.09
2019-02-21T21:59:20.295Z,102558.21
2019-02-21T22:01:48.505Z,102569.79
2019-02-21T22:04:16.703Z,102572.27
2019-02-21T22:06:44.909Z,102575.30
2019-02-21T22:09:13.113Z,102578.61
2019-02-21T22:11:41.317Z,102588.56
2019-02-21T22:14:09.523Z,102591.61
2019-02-21T22:16:37.736Z,102589.14
2019-02-21T22:19:05.934Z,102594.12
2019-02-21T22:21:34.135Z,102589.98
2019-02-21T22:24:02.347Z,102594.41
2019-02-21T22:26:30.571Z,102592.48
2019-02-21T22:28:58.760Z,102598.00
2019-02-21T22:31:26.987Z,102605.73
2019-02-21T22:33:55.190Z,102601.88
2019-02-21T22:36:23.397Z,102602.71
2019-02-21T22:38:51.611Z,102609.64
2019-02-21T22:41:19.817Z,102616.52
2019-02-21T22:43:48.017Z,102606.33
2019-02-21T22:46:16.227Z,102614.62
2019-02-21T22:48:47.234Z,102608.27
2019-02-21T22:51:14.357Z,102621.50
2019-02-21T22:53:42.565Z,102614.06
2019-02-21T22:56:10.771Z,102617.38
2019-02-21T22:58:45.091Z,102625.37
2019-02-21T23:01:24.431Z,102623.16
2019-02-21T23:03:55.503Z,102627.30
2019-02-21T23:06:42.128Z,102630.86
2019-02-21T23:09:27.473Z,102626.19
2019-02-21T23:11:50.962Z,102631.69
2019-02-21T23:14:19.578Z,102636.09
2019-02-21T23:16:47.969Z,102633.63
2019-02-21T23:19:16.182Z,102638.30
2019-02-21T23:21:44.394Z,102642.44
2019-02-21T23:24:12.597Z,102655.69
2019-02-21T23:26:40.801Z,102663.39
2019-02-21T23:29:09.009Z,102657.85
2019-02-21T23:31:37.221Z,102664.75
2019-02-21T23:34:07.069Z,102662.28
2019-02-21T23:36:35.279Z,102673.31
2019-02-21T23:39:04.026Z,102673.59
2019-02-21T23:41:32.229Z,102679.95
2019-02-21T23:44:00.436Z,102682.97
2019-02-21T23:46:28.649Z,102684.34
2019-02-21T23:48:56.854Z,102691.24
2019-02-21T23:51:25.053Z,102695.64
2019-02-21T23:54:02.801Z,102695.67
2019-02-21T23:56:23.188Z,102700.34
2019-02-21T23:58:51.400Z,102714.40
